sensor_id;sensor_type;location;lat;lon;timestamp;pressure;altitude;pressure_sealevel;temperature;humidity
51227;BME280;42714;48.260;10.980;2024-03-08T00:02:26;969.6;;;1.1;97.1
51227;BME280;42714;48.260;10.980;2024-03-08T00:07:27;969.5;;;1.0;97.3
51227;BME280;42714;48.260;10.980;2024-03-08T00:12:28;969.6;;;1.0;97.7
51227;BME280;42714;48.260;10.980;2024-03-08T00:17:29;969.5;;;0.9;97.9
51227;BME280;42714;48.260;10.980;2024-03-08T00:22:30;969.4;;;0.9;98.0
51227;BME280;42714;48.260;10.980;2024-03-08T00:27:31;969.4;;;0.9;98.3
51227;BME280;42714;48.260;10.980;2024-03-08T00:32:32;969.3;;;0.7;98.6
51227;BME280;42714;48.260;10.980;2024-03-08T00:37:33;969.3;;;0.8;98.9
51227;BME280;42714;48.260;10.980;2024-03-08T00:42:34;969.2;;;0.7;99.0
51227;BME280;42714;48.260;10.980;2024-03-08T00:47:35;969.2;;;0.8;99.0
51227;BME280;42714;48.260;10.980;2024-03-08T00:52:36;969.2;;;0.7;99.1
51227;BME280;42714;48.260;10.980;2024-03-08T00:57:37;969.1;;;0.6;99.2
51227;BME280;42714;48.260;10.980;2024-03-08T01:02:38;969.1;;;0.6;99.6
51227;BME280;42714;48.260;10.980;2024-03-08T01:07:39;969.1;;;0.6;99.5
51227;BME280;42714;48.260;10.980;2024-03-08T01:12:40;969.0;;;0.6;99.5
51227;BME280;42714;48.260;10.980;2024-03-08T01:17:41;968.9;;;0.6;99.5
51227;BME280;42714;48.260;10.980;2024-03-08T01:22:42;968.9;;;0.5;99.7
51227;BME280;42714;48.260;10.980;2024-03-08T01:27:43;968.9;;;0.6;99.7
51227;BME280;42714;48.260;10.980;2024-03-08T01:32:44;968.8;;;0.5;99.8
51227;BME280;42714;48.260;10.980;2024-03-08T01:37:45;968.8;;;0.6;99.5
51227;BME280;42714;48.260;10.980;2024-03-08T01:42:46;968.7;;;0.5;99.5
51227;BME280;42714;48.260;10.980;2024-03-08T01:47:47;968.6;;;0.5;99.4
51227;BME280;42714;48.260;10.980;2024-03-08T01:52:48;968.6;;;0.5;99.4
51227;BME280;42714;48.260;10.980;2024-03-08T01:57:49;968.5;;;0.4;99.4
51227;BME280;42714;48.260;10.980;2024-03-08T02:02:50;968.5;;;0.4;99.7
51227;BME280;42714;48.260;10.980;2024-03-08T02:07:51;968.3;;;0.3;99.7
51227;BME280;42714;48.260;10.980;2024-03-08T02:12:52;968.3;;;0.3;99.6
51227;BME280;42714;48.260;10.980;2024-03-08T02:17:53;968.3;;;0.2;100.0
51227;BME280;42714;48.260;10.980;2024-03-08T02:22:54;968.2;;;0.2;100.0
51227;BME280;42714;48.260;10.980;2024-03-08T02:27:55;968.2;;;0.2;100.0
51227;BME280;42714;48.260;10.980;2024-03-08T02:32:56;968.2;;;0.2;100.0
51227;BME280;42714;48.260;10.980;2024-03-08T02:37:57;968.2;;;0.2;100.0
51227;BME280;42714;48.260;10.980;2024-03-08T02:42:58;968.1;;;0.1;100.0
51227;BME280;42714;48.260;10.980;2024-03-08T02:47:59;968.1;;;0.1;100.0
51227;BME280;42714;48.260;10.980;2024-03-08T02:53:00;968.1;;;0.1;100.0
51227;BME280;42714;48.260;10.980;2024-03-08T02:58:01;968.1;;;0.0;100.0
51227;BME280;42714;48.260;10.980;2024-03-08T03:03:02;968.0;;;0.0;100.0
51227;BME280;42714;48.260;10.980;2024-03-08T03:08:03;968.0;;;-0.1;100.0
51227;BME280;42714;48.260;10.980;2024-03-08T03:13:04;968.0;;;-0.1;100.0
51227;BME280;42714;48.260;10.980;2024-03-08T03:18:05;968.0;;;-0.1;100.0
51227;BME280;42714;48.260;10.980;2024-03-08T03:23:06;968.0;;;-0.1;100.0
51227;BME280;42714;48.260;10.980;2024-03-08T03:28:07;967.9;;;-0.2;100.0
51227;BME280;42714;48.260;10.980;2024-03-08T03:38:09;967.9;;;-0.2;100.0
51227;BME280;42714;48.260;10.980;2024-03-08T03:43:10;967.9;;;-0.2;100.0
51227;BME280;42714;48.260;10.980;2024-03-08T03:48:11;967.8;;;-0.2;100.0
51227;BME280;42714;48.260;10.980;2024-03-08T03:53:12;967.8;;;-0.2;100.0
51227;BME280;42714;48.260;10.980;2024-03-08T03:58:13;967.8;;;-0.3;100.0
51227;BME280;42714;48.260;10.980;2024-03-08T04:03:14;967.8;;;-0.3;100.0
51227;BME280;42714;48.260;10.980;2024-03-08T04:08:15;967.8;;;-0.3;100.0
51227;BME280;42714;48.260;10.980;2024-03-08T04:13:16;967.9;;;-0.3;100.0
51227;BME280;42714;48.260;10.980;2024-03-08T04:18:17;967.8;;;-0.3;100.0
51227;BME280;42714;48.260;10.980;2024-03-08T04:23:18;967.8;;;-0.3;100.0
51227;BME280;42714;48.260;10.980;2024-03-08T04:28:19;967.8;;;-0.3;100.0
51227;BME280;42714;48.260;10.980;2024-03-08T04:33:20;967.7;;;-0.3;100.0
51227;BME280;42714;48.260;10.980;2024-03-08T04:38:21;967.7;;;-0.4;100.0
51227;BME280;42714;48.260;10.980;2024-03-08T04:43:22;967.6;;;-0.4;100.0
51227;BME280;42714;48.260;10.980;2024-03-08T04:48:23;967.6;;;-0.4;100.0
51227;BME280;42714;48.260;10.980;2024-03-08T04:53:24;967.5;;;-0.4;100.0
51227;BME280;42714;48.260;10.980;2024-03-08T04:58:25;967.5;;;-0.3;100.0
51227;BME280;42714;48.260;10.980;2024-03-08T05:03:26;967.5;;;-0.2;100.0
51227;BME280;42714;48.260;10.980;2024-03-08T05:08:27;967.5;;;-0.1;100.0
51227;BME280;42714;48.260;10.980;2024-03-08T05:13:28;967.5;;;0.1;100.0
51227;BME280;42714;48.260;10.980;2024-03-08T05:18:29;967.5;;;0.2;100.0
51227;BME280;42714;48.260;10.980;2024-03-08T05:23:30;967.5;;;0.3;100.0
51227;BME280;42714;48.260;10.980;2024-03-08T05:28:31;967.4;;;0.4;100.0
51227;BME280;42714;48.260;10.980;2024-03-08T05:33:32;967.5;;;0.6;100.0
51227;BME280;42714;48.260;10.980;2024-03-08T05:38:33;967.4;;;0.6;100.0
51227;BME280;42714;48.260;10.980;2024-03-08T05:43:34;967.4;;;0.7;100.0
51227;BME280;42714;48.260;10.980;2024-03-08T05:48:35;967.4;;;0.8;100.0
51227;BME280;42714;48.260;10.980;2024-03-08T05:53:36;967.4;;;0.8;100.0
51227;BME280;42714;48.260;10.980;2024-03-08T05:58:37;967.3;;;0.9;100.0
51227;BME280;42714;48.260;10.980;2024-03-08T06:03:38;967.3;;;0.9;100.0
51227;BME280;42714;48.260;10.980;2024-03-08T06:08:39;967.3;;;0.9;99.7
51227;BME280;42714;48.260;10.980;2024-03-08T06:13:40;967.2;;;1.0;98.5
51227;BME280;42714;48.260;10.980;2024-03-08T06:18:41;967.3;;;1.0;97.8
51227;BME280;42714;48.260;10.980;2024-03-08T06:23:42;967.3;;;1.0;97.3
51227;BME280;42714;48.260;10.980;2024-03-08T06:28:43;967.3;;;1.0;96.9
51227;BME280;42714;48.260;10.980;2024-03-08T06:33:44;967.4;;;1.1;96.6
51227;BME280;42714;48.260;10.980;2024-03-08T06:38:45;967.4;;;1.1;96.0
51227;BME280;42714;48.260;10.980;2024-03-08T06:43:46;967.4;;;1.2;95.6
51227;BME280;42714;48.260;10.980;2024-03-08T06:48:47;967.4;;;1.3;95.0
51227;BME280;42714;48.260;10.980;2024-03-08T06:53:48;967.4;;;1.3;94.3
51227;BME280;42714;48.260;10.980;2024-03-08T06:58:49;967.3;;;1.4;93.2
51227;BME280;42714;48.260;10.980;2024-03-08T07:03:50;967.4;;;1.5;92.5
51227;BME280;42714;48.260;10.980;2024-03-08T07:08:51;967.3;;;1.5;91.3
51227;BME280;42714;48.260;10.980;2024-03-08T07:13:52;967.2;;;1.5;90.7
51227;BME280;42714;48.260;10.980;2024-03-08T07:18:53;967.2;;;1.6;90.4
51227;BME280;42714;48.260;10.980;2024-03-08T07:23:54;967.1;;;1.5;89.9
51227;BME280;42714;48.260;10.980;2024-03-08T07:28:55;967.2;;;1.4;90.0
51227;BME280;42714;48.260;10.980;2024-03-08T07:33:56;967.1;;;1.6;90.3
51227;BME280;42714;48.260;10.980;2024-03-08T07:38:57;967.2;;;1.7;89.4
51227;BME280;42714;48.260;10.980;2024-03-08T07:43:58;967.1;;;1.7;89.0
51227;BME280;42714;48.260;10.980;2024-03-08T07:48:59;967.0;;;1.9;88.9
51227;BME280;42714;48.260;10.980;2024-03-08T07:54:00;967.1;;;2.0;87.6
51227;BME280;42714;48.260;10.980;2024-03-08T07:59:01;967.0;;;2.0;87.3
51227;BME280;42714;48.260;10.980;2024-03-08T08:04:02;967.0;;;1.9;86.9
51227;BME280;42714;48.260;10.980;2024-03-08T08:09:03;966.9;;;1.9;87.3
51227;BME280;42714;48.260;10.980;2024-03-08T08:14:04;966.9;;;1.9;86.8
51227;BME280;42714;48.260;10.980;2024-03-08T08:19:05;966.9;;;2.0;87.0
51227;BME280;42714;48.260;10.980;2024-03-08T08:24:06;966.9;;;2.1;86.5
51227;BME280;42714;48.260;10.980;2024-03-08T08:29:07;966.8;;;2.4;86.4
51227;BME280;42714;48.260;10.980;2024-03-08T08:34:09;966.8;;;2.6;85.3
51227;BME280;42714;48.260;10.980;2024-03-08T08:39:09;966.8;;;2.9;83.5
51227;BME280;42714;48.260;10.980;2024-03-08T08:44:10;966.7;;;3.0;83.1
51227;BME280;42714;48.260;10.980;2024-03-08T08:49:11;966.6;;;3.1;81.4
51227;BME280;42714;48.260;10.980;2024-03-08T08:54:12;966.5;;;3.2;81.8
51227;BME280;42714;48.260;10.980;2024-03-08T08:59:13;966.5;;;3.6;80.4
51227;BME280;42714;48.260;10.980;2024-03-08T09:04:14;966.5;;;3.8;77.7
51227;BME280;42714;48.260;10.980;2024-03-08T09:09:15;966.5;;;3.3;78.1
51227;BME280;42714;48.260;10.980;2024-03-08T09:14:16;966.3;;;3.9;77.7
51227;BME280;42714;48.260;10.980;2024-03-08T09:19:17;966.3;;;5.3;73.2
51227;BME280;42714;48.260;10.980;2024-03-08T09:24:18;966.2;;;6.3;69.1
51227;BME280;42714;48.260;10.980;2024-03-08T09:29:19;966.1;;;8.1;64.7
51227;BME280;42714;48.260;10.980;2024-03-08T09:34:20;966.1;;;8.5;61.0
51227;BME280;42714;48.260;10.980;2024-03-08T09:39:21;966.1;;;8.4;59.9
51227;BME280;42714;48.260;10.980;2024-03-08T09:44:22;966.0;;;7.8;61.0
51227;BME280;42714;48.260;10.980;2024-03-08T09:49:23;966.1;;;6.6;63.6
51227;BME280;42714;48.260;10.980;2024-03-08T09:54:25;966.0;;;7.7;62.5
51227;BME280;42714;48.260;10.980;2024-03-08T09:59:25;966.0;;;8.2;60.9
51227;BME280;42714;48.260;10.980;2024-03-08T10:04:26;965.9;;;8.1;61.5
51227;BME280;42714;48.260;10.980;2024-03-08T10:09:27;965.8;;;8.2;61.2
51227;BME280;42714;48.260;10.980;2024-03-08T10:14:28;965.6;;;9.0;58.3
51227;BME280;42714;48.260;10.980;2024-03-08T10:19:29;965.7;;;9.6;55.5
51227;BME280;42714;48.260;10.980;2024-03-08T10:24:30;965.6;;;9.7;56.8
51227;BME280;42714;48.260;10.980;2024-03-08T10:29:31;965.5;;;10.8;52.7
51227;BME280;42714;48.260;10.980;2024-03-08T10:34:32;965.5;;;11.5;50.9
51227;BME280;42714;48.260;10.980;2024-03-08T10:39:36;965.5;;;11.2;50.7
51227;BME280;42714;48.260;10.980;2024-03-08T10:44:51;965.5;;;11.8;50.1
51227;BME280;42714;48.260;10.980;2024-03-08T10:49:38;965.3;;;12.6;48.6
51227;BME280;42714;48.260;10.980;2024-03-08T10:54:36;965.3;;;13.1;48.3
51227;BME280;42714;48.260;10.980;2024-03-08T10:59:37;965.3;;;14.1;45.0
51227;BME280;42714;48.260;10.980;2024-03-08T11:04:38;965.2;;;13.8;45.1
51227;BME280;42714;48.260;10.980;2024-03-08T11:09:39;965.1;;;13.1;47.9
51227;BME280;42714;48.260;10.980;2024-03-08T11:14:42;965.1;;;13.8;45.1
51227;BME280;42714;48.260;10.980;2024-03-08T11:19:45;965.1;;;14.7;43.6
51227;BME280;42714;48.260;10.980;2024-03-08T11:24:42;965.0;;;14.7;43.2
51227;BME280;42714;48.260;10.980;2024-03-08T11:29:43;965.0;;;13.5;44.9
51227;BME280;42714;48.260;10.980;2024-03-08T11:34:48;964.9;;;13.7;44.7
51227;BME280;42714;48.260;10.980;2024-03-08T11:39:46;964.8;;;13.8;44.2
51227;BME280;42714;48.260;10.980;2024-03-08T11:44:46;964.7;;;13.8;44.7
51227;BME280;42714;48.260;10.980;2024-03-08T11:49:47;964.6;;;13.7;44.9
51227;BME280;42714;48.260;10.980;2024-03-08T11:59:52;964.5;;;13.9;44.6
51227;BME280;42714;48.260;10.980;2024-03-08T12:14:52;964.4;;;14.4;43.9
51227;BME280;42714;48.260;10.980;2024-03-08T12:19:53;964.2;;;15.0;42.4
51227;BME280;42714;48.260;10.980;2024-03-08T12:29:55;964.2;;;14.7;43.0
51227;BME280;42714;48.260;10.980;2024-03-08T12:34:56;964.0;;;15.6;40.9
51227;BME280;42714;48.260;10.980;2024-03-08T12:39:57;963.9;;;15.3;41.4
51227;BME280;42714;48.260;10.980;2024-03-08T12:44:58;963.8;;;15.1;42.1
51227;BME280;42714;48.260;10.980;2024-03-08T12:49:59;963.8;;;15.4;40.5
51227;BME280;42714;48.260;10.980;2024-03-08T12:55:00;963.7;;;14.8;42.8
51227;BME280;42714;48.260;10.980;2024-03-08T13:00:02;963.6;;;14.8;43.2
51227;BME280;42714;48.260;10.980;2024-03-08T13:05:02;963.6;;;14.6;43.3
51227;BME280;42714;48.260;10.980;2024-03-08T13:15:05;963.5;;;14.5;43.3
51227;BME280;42714;48.260;10.980;2024-03-08T13:25:08;963.4;;;13.7;44.2
51227;BME280;42714;48.260;10.980;2024-03-08T13:35:09;963.2;;;14.4;43.7
51227;BME280;42714;48.260;10.980;2024-03-08T13:40:09;963.1;;;14.8;43.0
51227;BME280;42714;48.260;10.980;2024-03-08T13:45:10;963.0;;;14.4;43.0
51227;BME280;42714;48.260;10.980;2024-03-08T13:50:12;963.0;;;14.6;42.5
51227;BME280;42714;48.260;10.980;2024-03-08T13:55:12;963.0;;;14.5;42.0
51227;BME280;42714;48.260;10.980;2024-03-08T14:00:15;962.9;;;14.4;43.3
51227;BME280;42714;48.260;10.980;2024-03-08T14:05:14;962.9;;;14.2;43.4
51227;BME280;42714;48.260;10.980;2024-03-08T14:10:15;962.9;;;13.8;43.1
51227;BME280;42714;48.260;10.980;2024-03-08T14:15:16;962.8;;;13.6;43.1
51227;BME280;42714;48.260;10.980;2024-03-08T14:20:17;962.7;;;14.0;41.9
51227;BME280;42714;48.260;10.980;2024-03-08T14:25:18;962.6;;;14.3;41.4
51227;BME280;42714;48.260;10.980;2024-03-08T14:30:20;962.6;;;14.5;41.3
51227;BME280;42714;48.260;10.980;2024-03-08T14:35:20;962.6;;;14.3;41.4
51227;BME280;42714;48.260;10.980;2024-03-08T14:40:21;962.6;;;14.0;41.8
51227;BME280;42714;48.260;10.980;2024-03-08T14:45:22;962.5;;;13.8;40.6
51227;BME280;42714;48.260;10.980;2024-03-08T14:50:24;962.5;;;13.4;40.8
51227;BME280;42714;48.260;10.980;2024-03-08T14:55:24;962.4;;;13.1;41.5
51227;BME280;42714;48.260;10.980;2024-03-08T15:00:25;962.3;;;12.7;42.5
51227;BME280;42714;48.260;10.980;2024-03-08T15:05:26;962.3;;;13.4;40.5
51227;BME280;42714;48.260;10.980;2024-03-08T15:10:27;962.3;;;13.0;41.5
51227;BME280;42714;48.260;10.980;2024-03-08T15:15:28;962.2;;;13.3;40.6
51227;BME280;42714;48.260;10.980;2024-03-08T15:20:29;962.2;;;13.2;41.1
51227;BME280;42714;48.260;10.980;2024-03-08T15:25:30;962.3;;;12.1;43.8
51227;BME280;42714;48.260;10.980;2024-03-08T15:30:31;962.1;;;11.8;45.8
51227;BME280;42714;48.260;10.980;2024-03-08T15:35:32;962.1;;;10.7;49.4
51227;BME280;42714;48.260;10.980;2024-03-08T15:40:33;962.1;;;10.0;51.8
51227;BME280;42714;48.260;10.980;2024-03-08T15:45:35;962.0;;;10.8;49.7
51227;BME280;42714;48.260;10.980;2024-03-08T15:50:35;962.0;;;11.7;46.5
51227;BME280;42714;48.260;10.980;2024-03-08T15:55:36;961.9;;;11.4;46.8
51227;BME280;42714;48.260;10.980;2024-03-08T16:00:38;962.0;;;10.1;50.2
51227;BME280;42714;48.260;10.980;2024-03-08T16:05:39;962.0;;;9.4;52.8
51227;BME280;42714;48.260;10.980;2024-03-08T16:10:42;962.0;;;8.9;53.2
51227;BME280;42714;48.260;10.980;2024-03-08T16:15:41;962.0;;;8.6;53.5
51227;BME280;42714;48.260;10.980;2024-03-08T16:20:42;961.9;;;8.4;54.5
51227;BME280;42714;48.260;10.980;2024-03-08T16:25:43;961.9;;;8.3;56.8
51227;BME280;42714;48.260;10.980;2024-03-08T16:30:44;961.9;;;8.1;58.2
51227;BME280;42714;48.260;10.980;2024-03-08T16:35:45;961.8;;;8.0;58.8
51227;BME280;42714;48.260;10.980;2024-03-08T16:40:48;961.7;;;7.8;59.5
51227;BME280;42714;48.260;10.980;2024-03-08T16:45:47;961.7;;;7.7;58.9
51227;BME280;42714;48.260;10.980;2024-03-08T16:50:48;961.7;;;7.4;60.4
51227;BME280;42714;48.260;10.980;2024-03-08T16:55:49;961.6;;;7.3;61.1
51227;BME280;42714;48.260;10.980;2024-03-08T17:00:50;961.6;;;7.1;62.3
51227;BME280;42714;48.260;10.980;2024-03-08T17:05:51;961.5;;;7.0;63.0
51227;BME280;42714;48.260;10.980;2024-03-08T17:10:52;961.5;;;6.9;63.7
51227;BME280;42714;48.260;10.980;2024-03-08T17:15:53;961.5;;;6.7;64.9
51227;BME280;42714;48.260;10.980;2024-03-08T17:20:54;961.5;;;6.6;65.7
51227;BME280;42714;48.260;10.980;2024-03-08T17:25:55;961.4;;;6.4;66.3
51227;BME280;42714;48.260;10.980;2024-03-08T17:30:56;961.4;;;6.3;67.0
51227;BME280;42714;48.260;10.980;2024-03-08T17:35:57;961.4;;;6.2;67.7
51227;BME280;42714;48.260;10.980;2024-03-08T17:40:58;961.4;;;6.2;68.0
51227;BME280;42714;48.260;10.980;2024-03-08T17:45:59;961.4;;;6.2;68.3
51227;BME280;42714;48.260;10.980;2024-03-08T17:51:00;961.3;;;6.2;68.7
51227;BME280;42714;48.260;10.980;2024-03-08T17:56:01;961.3;;;5.9;69.6
51227;BME280;42714;48.260;10.980;2024-03-08T18:01:02;961.3;;;5.9;69.9
51227;BME280;42714;48.260;10.980;2024-03-08T18:06:03;961.1;;;5.9;70.3
51227;BME280;42714;48.260;10.980;2024-03-08T18:11:04;961.1;;;5.8;70.9
51227;BME280;42714;48.260;10.980;2024-03-08T18:21:06;961.0;;;5.6;71.8
51227;BME280;42714;48.260;10.980;2024-03-08T18:26:07;960.9;;;5.7;72.0
51227;BME280;42714;48.260;10.980;2024-03-08T18:31:08;961.0;;;5.7;72.4
51227;BME280;42714;48.260;10.980;2024-03-08T18:36:09;960.8;;;5.7;72.4
51227;BME280;42714;48.260;10.980;2024-03-08T18:41:10;960.7;;;5.7;72.6
51227;BME280;42714;48.260;10.980;2024-03-08T18:46:11;960.6;;;5.7;72.8
51227;BME280;42714;48.260;10.980;2024-03-08T18:51:12;960.7;;;5.6;73.2
51227;BME280;42714;48.260;10.980;2024-03-08T18:56:13;960.7;;;5.5;73.5
51227;BME280;42714;48.260;10.980;2024-03-08T19:01:14;960.7;;;5.4;74.3
51227;BME280;42714;48.260;10.980;2024-03-08T19:06:15;960.6;;;5.3;74.6
51227;BME280;42714;48.260;10.980;2024-03-08T19:11:16;960.5;;;5.2;75.1
51227;BME280;42714;48.260;10.980;2024-03-08T19:16:17;960.4;;;5.2;75.4
51227;BME280;42714;48.260;10.980;2024-03-08T19:21:18;960.3;;;5.2;75.8
51227;BME280;42714;48.260;10.980;2024-03-08T19:26:19;960.3;;;5.0;76.3
51227;BME280;42714;48.260;10.980;2024-03-08T19:31:20;960.3;;;5.0;76.6
51227;BME280;42714;48.260;10.980;2024-03-08T19:36:21;960.3;;;5.0;76.9
51227;BME280;42714;48.260;10.980;2024-03-08T19:41:22;960.3;;;4.9;77.1
51227;BME280;42714;48.260;10.980;2024-03-08T19:46:23;960.3;;;4.9;77.2
51227;BME280;42714;48.260;10.980;2024-03-08T19:51:24;960.2;;;4.9;77.2
51227;BME280;42714;48.260;10.980;2024-03-08T19:56:25;960.4;;;4.8;77.7
51227;BME280;42714;48.260;10.980;2024-03-08T20:01:26;960.4;;;4.8;77.8
51227;BME280;42714;48.260;10.980;2024-03-08T20:06:27;960.4;;;4.8;77.8
51227;BME280;42714;48.260;10.980;2024-03-08T20:11:28;960.4;;;4.7;78.1
51227;BME280;42714;48.260;10.980;2024-03-08T20:16:29;960.3;;;4.6;78.5
51227;BME280;42714;48.260;10.980;2024-03-08T20:21:30;960.4;;;4.5;79.2
51227;BME280;42714;48.260;10.980;2024-03-08T20:26:31;960.4;;;4.5;79.3
51227;BME280;42714;48.260;10.980;2024-03-08T20:31:32;960.3;;;4.4;79.4
51227;BME280;42714;48.260;10.980;2024-03-08T20:36:33;960.3;;;4.4;79.5
51227;BME280;42714;48.260;10.980;2024-03-08T20:41:34;960.2;;;4.4;79.6
51227;BME280;42714;48.260;10.980;2024-03-08T20:46:37;960.2;;;4.3;79.6
51227;BME280;42714;48.260;10.980;2024-03-08T20:51:36;960.2;;;4.2;79.9
51227;BME280;42714;48.260;10.980;2024-03-08T20:56:37;960.2;;;4.2;80.2
51227;BME280;42714;48.260;10.980;2024-03-08T21:01:38;960.2;;;4.1;80.2
51227;BME280;42714;48.260;10.980;2024-03-08T21:06:42;960.1;;;4.0;80.4
51227;BME280;42714;48.260;10.980;2024-03-08T21:11:40;960.1;;;3.9;80.7
51227;BME280;42714;48.260;10.980;2024-03-08T21:16:41;960.0;;;3.9;80.8
51227;BME280;42714;48.260;10.980;2024-03-08T21:21:42;960.0;;;3.8;81.2
51227;BME280;42714;48.260;10.980;2024-03-08T21:26:43;959.9;;;3.8;81.4
51227;BME280;42714;48.260;10.980;2024-03-08T21:31:44;959.9;;;3.6;82.1
51227;BME280;42714;48.260;10.980;2024-03-08T21:36:45;959.9;;;3.6;82.5
51227;BME280;42714;48.260;10.980;2024-03-08T21:41:47;959.9;;;3.4;83.1
51227;BME280;42714;48.260;10.980;2024-03-08T21:46:48;959.9;;;3.3;83.9
51227;BME280;42714;48.260;10.980;2024-03-08T21:51:49;959.9;;;3.3;84.3
51227;BME280;42714;48.260;10.980;2024-03-08T21:56:50;959.9;;;3.2;84.8
51227;BME280;42714;48.260;10.980;2024-03-08T22:01:51;959.8;;;3.2;85.1
51227;BME280;42714;48.260;10.980;2024-03-08T22:06:52;959.7;;;3.1;85.4
51227;BME280;42714;48.260;10.980;2024-03-08T22:11:53;959.7;;;3.1;85.9
51227;BME280;42714;48.260;10.980;2024-03-08T22:16:54;959.9;;;3.0;86.2
51227;BME280;42714;48.260;10.980;2024-03-08T22:21:55;959.8;;;2.9;86.6
51227;BME280;42714;48.260;10.980;2024-03-08T22:26:56;959.9;;;2.8;87.1
51227;BME280;42714;48.260;10.980;2024-03-08T22:31:57;959.9;;;2.6;87.7
51227;BME280;42714;48.260;10.980;2024-03-08T22:36:58;959.8;;;2.6;88.3
51227;BME280;42714;48.260;10.980;2024-03-08T22:41:59;959.7;;;2.6;88.7
51227;BME280;42714;48.260;10.980;2024-03-08T22:47:00;959.8;;;2.6;89.1
51227;BME280;42714;48.260;10.980;2024-03-08T22:52:01;959.8;;;2.6;89.2
51227;BME280;42714;48.260;10.980;2024-03-08T22:57:02;959.8;;;2.6;89.4
51227;BME280;42714;48.260;10.980;2024-03-08T23:02:03;959.8;;;2.5;89.3
51227;BME280;42714;48.260;10.980;2024-03-08T23:07:04;959.8;;;2.5;89.1
51227;BME280;42714;48.260;10.980;2024-03-08T23:12:05;959.8;;;2.4;89.4
51227;BME280;42714;48.260;10.980;2024-03-08T23:17:06;959.8;;;2.4;89.5
51227;BME280;42714;48.260;10.980;2024-03-08T23:22:07;959.9;;;2.4;89.7
51227;BME280;42714;48.260;10.980;2024-03-08T23:27:08;959.9;;;2.4;89.8
51227;BME280;42714;48.260;10.980;2024-03-08T23:32:09;959.9;;;2.3;89.6
51227;BME280;42714;48.260;10.980;2024-03-08T23:37:10;959.9;;;2.3;89.9
51227;BME280;42714;48.260;10.980;2024-03-08T23:42:11;959.9;;;2.3;90.1
51227;BME280;42714;48.260;10.980;2024-03-08T23:47:12;959.7;;;2.3;90.2
51227;BME280;42714;48.260;10.980;2024-03-08T23:52:13;959.7;;;2.3;90.3
51227;BME280;42714;48.260;10.980;2024-03-08T23:57:14;959.9;;;2.2;90.2
